Portada
METAR-TAF:

METAR-TAF

Aeroports :

Los Ángeles, Xile

latitud: 37-24-07S, longitud: 072-25-32W, altitud: 114 m

Observació

L'informe es va fer fa 20 minuts, a les 18:00 UTC
Vent 6 kt del Sud
Temperatura 13°C
Humitat 62%
Pressió 1020 hPa
Visibilitat 10 km o més
sense núvols per sota de 1500 mi sense presència de cumulonimbus.

METAR: SCGE 041800Z 17006KT CAVOK 13/06 Q1020

Hora: 14:20 (18:20 UTC)

Pronòstic

L'informe es va fer fa 19 minuts, a les 18:01 UTC
Pronòstic vàlid del 04 a les 18 UTC al 05 a les 00 UTC
Vent 6 kt del Sud
Visibilitat 10 km o més
sense núvols per sota de 1500 mi sense presència de cumulonimbus.

TAF: SCGE 041801Z 0418/0500 17006KT CAVOK TX14/0418Z TN11/0423Z

Observacions i pronòstics meteorològics de més de 4000 aeroports (METAR i TAF).

Les estacions disponibles són els punts grocs i vermells al mapa.

Posi el ratolí al punt desitjat per veure el nom de l'estació.

Feu clic per veure les observacions i els pronòstics meteorològics.

Per canviar el mapa: feu clic els botons verds amb una creu de color negre per apropar; al botó verd amb un guió per allunyar la imatge; o en les fletxes verdes per a mapes adjacents.


METAR-TAF: